createdAt,value
2023-11-04T00:01:33.305Z,65.18
2023-11-04T00:04:01.720Z,64.32
2023-11-04T00:06:28.577Z,63.83
2023-11-04T00:08:55.490Z,65.16
2023-11-04T00:11:23.471Z,63.73
2023-11-04T00:13:53.064Z,64.83
2023-11-04T00:16:20.664Z,64.92
2023-11-04T00:18:47.744Z,63.87
2023-11-04T00:21:21.554Z,64.16
2023-11-04T00:23:48.976Z,63.70
2023-11-04T00:26:15.706Z,64.35
2023-11-04T00:28:43.800Z,64.45
2023-11-04T00:31:10.894Z,62.71
2023-11-04T00:33:41.969Z,62.97
2023-11-04T00:36:09.977Z,63.46
2023-11-04T00:38:39.173Z,63.47
2023-11-04T00:41:08.031Z,63.76
2023-11-04T00:43:38.136Z,63.06
2023-11-04T00:46:05.372Z,63.57
2023-11-04T00:48:37.122Z,63.54
2023-11-04T00:51:05.592Z,64.07
2023-11-04T00:53:35.854Z,65.54
2023-11-04T00:56:04.027Z,64.33
2023-11-04T00:58:30.968Z,63.77
2023-11-04T01:00:58.254Z,62.82
2023-11-04T01:03:27.899Z,63.97
2023-11-04T01:05:54.978Z,62.06
2023-11-04T01:08:21.834Z,63.14
2023-11-04T01:10:49.411Z,64.16
2023-11-04T01:13:41.452Z,64.78
2023-11-04T01:16:22.718Z,64.51
2023-11-04T01:18:55.196Z,61.43
2023-11-04T01:21:22.594Z,62.29
2023-11-04T01:23:54.509Z,62.17
2023-11-04T01:26:21.827Z,62.29
2023-11-04T01:29:01.805Z,62.53
2023-11-04T01:31:29.637Z,62.78
2023-11-04T01:33:57.215Z,63.83
2023-11-04T01:36:25.445Z,62.90
2023-11-04T01:39:07.691Z,63.03
2023-11-04T01:41:45.270Z,62.64
2023-11-04T01:44:17.149Z,62.75
2023-11-04T01:46:48.659Z,63.67
2023-11-04T01:49:19.114Z,62.35
2023-11-04T01:51:46.719Z,62.93
2023-11-04T01:54:14.411Z,63.13
2023-11-04T01:56:42.498Z,63.28
2023-11-04T01:59:12.393Z,63.39
2023-11-04T02:01:41.806Z,63.25
2023-11-04T02:04:09.240Z,63.23
2023-11-04T02:06:36.502Z,63.88
2023-11-04T02:09:04.569Z,63.80
2023-11-04T02:11:31.767Z,66.23
2023-11-04T02:13:58.642Z,64.24
2023-11-04T02:16:25.634Z,63.50
2023-11-04T02:18:52.647Z,63.89
2023-11-04T02:21:19.734Z,64.15
2023-11-04T02:23:46.536Z,64.21
2023-11-04T02:26:14.079Z,65.00
2023-11-04T02:28:40.934Z,65.13
2023-11-04T02:31:10.756Z,65.54
2023-11-04T02:33:40.173Z,66.13
2023-11-04T02:36:07.623Z,66.44
2023-11-04T02:38:34.518Z,65.86
2023-11-04T02:41:07.599Z,65.50
2023-11-04T02:43:34.404Z,66.67
2023-11-04T02:46:05.483Z,66.22
2023-11-04T02:48:34.214Z,66.23
2023-11-04T02:51:01.147Z,66.12
2023-11-04T02:53:30.623Z,66.23
2023-11-04T02:55:57.435Z,66.14
2023-11-04T02:58:29.186Z,66.15
2023-11-04T03:00:57.850Z,66.76
2023-11-04T03:03:26.264Z,66.40
2023-11-04T03:05:53.176Z,67.08
2023-11-04T03:08:20.044Z,66.83
2023-11-04T03:10:54.981Z,67.18
2023-11-04T03:13:21.770Z,67.29
2023-11-04T03:15:57.759Z,67.84
2023-11-04T03:18:28.922Z,68.19
2023-11-04T03:20:56.319Z,67.50
2023-11-04T03:23:29.737Z,67.92
2023-11-04T03:25:56.508Z,68.42
2023-11-04T03:28:23.916Z,68.69
2023-11-04T03:30:50.657Z,68.86
2023-11-04T03:33:28.078Z,69.25
2023-11-04T03:35:55.470Z,69.37
2023-11-04T03:38:29.776Z,69.61
2023-11-04T03:40:56.691Z,69.75
2023-11-04T03:43:24.157Z,69.70
2023-11-04T03:45:59.766Z,69.79
2023-11-04T03:48:27.933Z,69.99
2023-11-04T03:50:58.907Z,70.19
2023-11-04T03:53:34.331Z,70.09
2023-11-04T03:56:02.711Z,69.36
2023-11-04T03:58:33.322Z,69.82
2023-11-04T04:01:04.192Z,70.02
2023-11-04T04:03:31.089Z,70.40
2023-11-04T04:05:57.998Z,70.44
2023-11-04T04:08:24.797Z,70.68
2023-11-04T04:10:51.654Z,70.34
2023-11-04T04:13:18.673Z,70.78
2023-11-04T04:15:48.973Z,70.71
2023-11-04T04:18:15.911Z,70.97
2023-11-04T04:20:45.403Z,71.00
2023-11-04T04:23:14.117Z,70.99
2023-11-04T04:25:45.549Z,70.99
2023-11-04T04:28:12.516Z,70.98
2023-11-04T04:30:45.067Z,70.86
2023-11-04T04:33:13.603Z,70.74
2023-11-04T04:35:41.996Z,70.94
2023-11-04T04:38:08.905Z,71.36
2023-11-04T04:40:38.815Z,71.29
2023-11-04T04:43:06.026Z,71.45
2023-11-04T04:45:33.118Z,71.03
2023-11-04T04:48:00.103Z,70.98
2023-11-04T04:50:33.214Z,70.56
2023-11-04T04:53:01.370Z,70.73
2023-11-04T04:55:34.255Z,71.97
2023-11-04T04:58:01.009Z,71.44
2023-11-04T05:00:27.908Z,71.71
2023-11-04T05:02:54.810Z,72.65
2023-11-04T05:05:21.732Z,71.38
2023-11-04T05:07:51.272Z,69.79
2023-11-04T05:10:18.282Z,69.75
2023-11-04T05:12:45.206Z,70.15
2023-11-04T05:15:14.843Z,70.30
2023-11-04T05:17:42.488Z,72.14
2023-11-04T05:20:09.992Z,71.45
2023-11-04T05:22:44.895Z,70.95
2023-11-04T05:25:15.088Z,70.02
2023-11-04T05:27:42.414Z,70.17
2023-11-04T05:30:10.099Z,70.52
2023-11-04T05:32:37.308Z,70.55
2023-11-04T05:35:07.777Z,70.07
2023-11-04T05:37:36.736Z,70.39
2023-11-04T05:40:04.761Z,70.62
2023-11-04T05:42:31.754Z,70.53
2023-11-04T05:45:11.241Z,70.80
2023-11-04T05:47:38.113Z,70.38
2023-11-04T05:50:07.213Z,71.03
2023-11-04T05:52:39.747Z,71.79
2023-11-04T05:55:07.004Z,71.14
2023-11-04T05:57:40.590Z,70.98
2023-11-04T06:00:14.146Z,70.69
2023-11-04T06:02:48.333Z,70.96
2023-11-04T06:05:18.619Z,70.93
2023-11-04T06:07:45.621Z,72.97
2023-11-04T06:10:14.292Z,71.09
2023-11-04T06:12:44.404Z,70.87
2023-11-04T06:15:14.786Z,70.82
2023-11-04T06:17:41.914Z,71.02
2023-11-04T06:20:14.719Z,71.54
2023-11-04T06:22:41.534Z,71.43
2023-11-04T06:25:09.336Z,71.73
2023-11-04T06:27:37.660Z,71.52
2023-11-04T06:30:04.940Z,71.63
2023-11-04T06:32:31.902Z,72.30
2023-11-04T06:35:03.416Z,71.92
2023-11-04T06:37:31.907Z,71.85
2023-11-04T06:40:00.329Z,72.18
2023-11-04T06:42:28.771Z,71.80
2023-11-04T06:44:56.293Z,72.18
2023-11-04T06:47:24.357Z,71.86
2023-11-04T06:49:51.438Z,74.73
2023-11-04T06:52:22.261Z,73.26
2023-11-04T06:54:51.569Z,72.20
2023-11-04T06:57:18.471Z,71.20
2023-11-04T06:59:45.379Z,71.68
2023-11-04T07:02:12.581Z,71.05
2023-11-04T07:04:39.730Z,71.63
2023-11-04T07:07:07.542Z,71.35
2023-11-04T07:09:38.186Z,71.14
2023-11-04T07:12:07.825Z,71.04
2023-11-04T07:14:36.119Z,71.06
2023-11-04T07:17:04.305Z,71.06
2023-11-04T07:19:35.239Z,70.38
2023-11-04T07:22:02.509Z,70.44
2023-11-04T07:24:29.601Z,70.13
2023-11-04T07:26:56.629Z,70.61
2023-11-04T07:29:24.948Z,70.64
2023-11-04T07:31:55.213Z,70.66
2023-11-04T07:34:25.109Z,69.69
2023-11-04T07:36:53.039Z,70.33
2023-11-04T07:39:23.318Z,70.97
2023-11-04T07:41:53.454Z,69.91
2023-11-04T07:44:20.401Z,68.75
2023-11-04T07:46:49.859Z,69.25
2023-11-04T07:49:24.818Z,69.24
2023-11-04T07:51:52.201Z,68.94
2023-11-04T07:54:19.115Z,68.32
2023-11-04T07:56:49.298Z,68.28
2023-11-04T07:59:17.910Z,68.40
2023-11-04T08:01:46.392Z,68.65
2023-11-04T08:04:13.726Z,68.99
2023-11-04T08:06:40.580Z,69.97
2023-11-04T08:09:09.393Z,69.70
2023-11-04T08:11:43.268Z,69.43
2023-11-04T08:14:10.321Z,68.21
2023-11-04T08:16:37.094Z,68.49
2023-11-04T08:19:05.173Z,68.63
2023-11-04T08:21:32.936Z,68.43
2023-11-04T08:24:02.147Z,67.71
2023-11-04T08:26:30.741Z,67.50
2023-11-04T08:28:58.061Z,65.74
2023-11-04T08:31:27.810Z,66.04
2023-11-04T08:33:59.754Z,65.24
2023-11-04T08:36:32.359Z,64.83
2023-11-04T08:39:00.801Z,64.25
2023-11-04T08:41:37.700Z,65.13
2023-11-04T08:44:05.105Z,64.57
2023-11-04T08:46:32.973Z,64.36
2023-11-04T08:49:03.489Z,65.23
2023-11-04T08:51:41.041Z,64.64
2023-11-04T08:54:14.766Z,64.19
2023-11-04T08:56:44.302Z,64.17
2023-11-04T08:59:11.276Z,64.74
2023-11-04T09:01:38.425Z,66.16
2023-11-04T09:04:09.174Z,62.78
2023-11-04T09:06:44.629Z,63.36
2023-11-04T09:09:11.679Z,63.26
2023-11-04T09:11:40.781Z,63.41
2023-11-04T09:14:09.152Z,63.35
2023-11-04T09:16:37.433Z,62.34
2023-11-04T09:19:05.407Z,61.87
2023-11-04T09:21:34.062Z,62.50
2023-11-04T09:24:03.560Z,61.00
2023-11-04T09:26:34.020Z,61.02
2023-11-04T09:29:01.196Z,60.53
2023-11-04T09:31:33.353Z,62.49
2023-11-04T09:34:01.559Z,63.71
2023-11-04T09:36:28.636Z,60.58
2023-11-04T09:38:57.262Z,60.22
2023-11-04T09:41:24.345Z,60.53
2023-11-04T09:43:53.357Z,59.74
2023-11-04T09:46:22.513Z,60.60
2023-11-04T09:48:57.953Z,59.29
2023-11-04T09:51:29.708Z,60.54
2023-11-04T09:54:05.550Z,59.91
2023-11-04T09:56:33.438Z,59.01
2023-11-04T09:59:02.794Z,59.58
2023-11-04T10:01:32.861Z,58.20
2023-11-04T10:04:00.070Z,58.77
2023-11-04T10:06:34.947Z,59.92
2023-11-04T10:09:02.641Z,60.52
2023-11-04T10:11:38.946Z,57.99
2023-11-04T10:14:07.250Z,58.12
2023-11-04T10:16:34.232Z,57.77
2023-11-04T10:19:02.484Z,58.30
2023-11-04T10:21:44.463Z,56.38
2023-11-04T10:24:11.461Z,56.47
2023-11-04T10:26:39.134Z,58.75
2023-11-04T10:29:13.659Z,59.10
2023-11-04T10:31:43.773Z,58.92
2023-11-04T10:34:15.000Z,58.07
2023-11-04T10:36:52.202Z,59.40
2023-11-04T10:39:21.644Z,58.89
2023-11-04T10:42:13.320Z,57.30
2023-11-04T10:44:42.473Z,58.69
2023-11-04T10:47:46.463Z,60.37
2023-11-04T10:50:36.340Z,56.54
2023-11-04T10:53:15.356Z,58.46
2023-11-04T10:55:57.196Z,57.63
2023-11-04T10:59:04.116Z,57.42
2023-11-04T11:01:32.288Z,58.91
2023-11-04T11:04:03.057Z,58.81
2023-11-04T11:06:31.560Z,59.64
2023-11-04T11:09:01.561Z,59.49
2023-11-04T11:11:46.362Z,58.81
2023-11-04T11:14:13.823Z,59.05
2023-11-04T11:16:42.128Z,58.65
2023-11-04T11:19:13.674Z,59.62
2023-11-04T11:21:51.375Z,58.94
2023-11-04T11:24:22.399Z,59.83
2023-11-04T11:27:05.467Z,60.94
2023-11-04T11:29:34.853Z,60.61
2023-11-04T11:32:07.249Z,61.21
2023-11-04T11:34:34.138Z,60.23
2023-11-04T11:37:13.052Z,60.39
2023-11-04T11:39:40.167Z,59.88
2023-11-04T11:42:07.120Z,59.33
2023-11-04T11:44:34.654Z,61.13
2023-11-04T11:47:03.565Z,61.43
2023-11-04T11:49:32.549Z,61.78
2023-11-04T11:52:12.524Z,61.19
2023-11-04T11:54:40.715Z,61.80
2023-11-04T11:57:07.759Z,62.53
2023-11-04T11:59:35.934Z,62.29
2023-11-04T12:02:02.923Z,62.65
2023-11-04T12:04:30.773Z,62.80
2023-11-04T12:06:59.241Z,63.39
2023-11-04T12:09:25.908Z,63.53
2023-11-04T12:12:01.204Z,63.31
2023-11-04T12:14:28.844Z,63.30
2023-11-04T12:16:55.809Z,63.78
2023-11-04T12:19:23.765Z,63.29
2023-11-04T12:21:51.148Z,63.54
2023-11-04T12:24:19.653Z,62.18
2023-11-04T12:26:48.136Z,62.06
2023-11-04T12:29:15.044Z,62.82
2023-11-04T12:31:43.042Z,62.59
2023-11-04T12:34:12.361Z,62.87
2023-11-04T12:36:39.444Z,62.93
2023-11-04T12:39:06.605Z,63.44
2023-11-04T12:41:34.266Z,63.49
2023-11-04T12:44:04.957Z,64.05
2023-11-04T12:46:32.477Z,63.98
2023-11-04T12:48:59.786Z,64.04
2023-11-04T12:51:26.737Z,64.15
2023-11-04T12:53:53.933Z,64.37
2023-11-04T12:56:21.038Z,63.72
2023-11-04T12:58:55.501Z,64.20
2023-11-04T13:01:22.269Z,64.27
2023-11-04T13:03:50.598Z,63.98
2023-11-04T13:06:20.659Z,64.17
2023-11-04T13:08:48.347Z,64.25
2023-11-04T13:11:15.331Z,64.53
2023-11-04T13:13:42.496Z,64.93
2023-11-04T13:16:10.473Z,65.13
2023-11-04T13:18:37.589Z,64.98
2023-11-04T13:21:07.354Z,64.84
2023-11-04T13:23:34.914Z,65.12
2023-11-04T13:26:03.065Z,64.38
2023-11-04T13:28:32.334Z,65.39
2023-11-04T13:31:00.488Z,65.16
2023-11-04T13:33:27.435Z,65.15
2023-11-04T13:35:54.503Z,65.01
2023-11-04T13:38:26.223Z,64.60
2023-11-04T13:40:53.500Z,64.92
2023-11-04T13:43:20.530Z,64.90
2023-11-04T13:45:47.402Z,64.99
2023-11-04T13:48:14.251Z,64.94
2023-11-04T13:50:41.002Z,65.27
2023-11-04T13:53:07.972Z,64.91
2023-11-04T13:55:34.808Z,65.47
2023-11-04T13:58:02.750Z,64.83
2023-11-04T14:00:29.534Z,65.65
2023-11-04T14:03:02.686Z,66.23
2023-11-04T14:05:29.952Z,65.97
2023-11-04T14:07:59.841Z,65.47
2023-11-04T14:10:29.227Z,65.03
2023-11-04T14:12:56.259Z,65.87
2023-11-04T14:15:23.138Z,65.58
2023-11-04T14:17:49.918Z,66.13
2023-11-04T14:20:22.140Z,65.89
2023-11-04T14:22:49.832Z,66.15
2023-11-04T14:25:20.342Z,66.50
2023-11-04T14:27:48.994Z,66.90
2023-11-04T14:30:16.496Z,66.69
2023-11-04T14:32:43.522Z,66.11
2023-11-04T14:35:12.496Z,66.42
2023-11-04T14:37:39.997Z,66.04
2023-11-04T14:40:14.538Z,65.74
2023-11-04T14:42:49.494Z,66.04
2023-11-04T14:45:19.291Z,65.99
2023-11-04T14:47:46.287Z,66.07
2023-11-04T14:50:14.206Z,66.38
2023-11-04T14:52:44.555Z,66.13
2023-11-04T14:55:12.880Z,66.80
2023-11-04T14:57:42.661Z,66.41
2023-11-04T15:00:11.458Z,65.96
2023-11-04T15:02:40.390Z,66.33
2023-11-04T15:05:11.068Z,66.46
2023-11-04T15:07:39.300Z,66.60
2023-11-04T15:10:12.389Z,66.79
2023-11-04T15:12:48.428Z,66.77
2023-11-04T15:15:17.530Z,66.90
2023-11-04T15:17:48.361Z,67.64
2023-11-04T15:20:17.088Z,66.54
2023-11-04T15:22:44.396Z,66.35
2023-11-04T15:25:12.222Z,66.78
2023-11-04T15:27:40.778Z,66.29
2023-11-04T15:30:24.361Z,66.86
2023-11-04T15:32:54.629Z,66.76
2023-11-04T15:35:28.984Z,66.78
2023-11-04T15:37:56.279Z,66.82
2023-11-04T15:40:24.744Z,66.93
2023-11-04T15:42:54.505Z,66.94
2023-11-04T15:45:21.854Z,66.51
2023-11-04T15:47:48.907Z,66.38
2023-11-04T15:50:16.343Z,66.47
2023-11-04T15:52:46.105Z,66.48
2023-11-04T15:55:13.665Z,66.68
2023-11-04T15:57:43.786Z,66.87
2023-11-04T16:00:17.553Z,66.79
2023-11-04T16:02:44.434Z,66.65
2023-11-04T16:05:11.945Z,66.37
2023-11-04T16:07:46.197Z,66.59
2023-11-04T16:10:19.619Z,67.26
2023-11-04T16:12:49.352Z,67.58
2023-11-04T16:15:21.619Z,67.70
2023-11-04T16:17:52.671Z,67.22
2023-11-04T16:20:20.389Z,66.90
2023-11-04T16:22:47.677Z,66.77
2023-11-04T16:25:15.738Z,66.71
2023-11-04T16:27:42.512Z,65.91
2023-11-04T16:30:16.557Z,66.59
2023-11-04T16:32:45.486Z,65.19
2023-11-04T16:35:12.757Z,65.07
2023-11-04T16:37:40.504Z,64.79
2023-11-04T16:40:10.083Z,64.16
2023-11-04T16:42:37.741Z,63.14
2023-11-04T16:45:17.467Z,64.16
2023-11-04T16:47:44.982Z,63.58
2023-11-04T16:50:16.017Z,64.02
2023-11-04T16:52:43.709Z,63.12
2023-11-04T16:55:12.916Z,63.73
2023-11-04T16:57:42.125Z,63.55
2023-11-04T17:03:02.135Z,62.27
2023-11-04T17:05:33.120Z,62.47
2023-11-04T17:08:01.027Z,61.07
2023-11-04T17:10:28.873Z,62.50
2023-11-04T17:13:01.857Z,63.37
2023-11-04T17:15:31.423Z,63.17
2023-11-04T17:17:58.972Z,61.56
2023-11-04T17:20:30.485Z,62.80
2023-11-04T17:22:58.367Z,62.23
2023-11-04T17:25:25.348Z,62.03
2023-11-04T17:27:55.628Z,62.78
2023-11-04T17:30:24.658Z,60.72
2023-11-04T17:32:51.781Z,61.48
2023-11-04T17:35:20.740Z,62.26
2023-11-04T17:37:51.721Z,60.99
2023-11-04T17:40:26.729Z,61.44
2023-11-04T17:42:55.474Z,61.99
2023-11-04T17:45:34.402Z,61.60
2023-11-04T17:48:01.155Z,60.89
2023-11-04T17:50:33.867Z,61.15
2023-11-04T17:53:00.597Z,61.01
2023-11-04T17:55:27.433Z,60.47
2023-11-04T17:57:55.493Z,61.36
2023-11-04T18:00:22.613Z,61.05
2023-11-04T18:02:52.466Z,60.82
2023-11-04T18:05:20.527Z,60.98
2023-11-04T18:07:48.467Z,61.47
2023-11-04T18:10:18.758Z,61.45
2023-11-04T18:12:45.797Z,61.93
2023-11-04T18:15:17.365Z,61.36
2023-11-04T18:17:45.679Z,61.97
2023-11-04T18:20:13.103Z,61.53
2023-11-04T18:22:40.111Z,61.63
2023-11-04T18:25:09.669Z,59.35
2023-11-04T18:27:51.159Z,59.83
2023-11-04T18:30:25.827Z,59.64
2023-11-04T18:32:53.322Z,60.74
2023-11-04T18:35:20.500Z,60.73
2023-11-04T18:37:51.166Z,61.19
2023-11-04T18:40:19.214Z,59.89
2023-11-04T18:42:51.456Z,60.93
2023-11-04T18:45:18.694Z,61.34
2023-11-04T18:47:46.803Z,60.81
2023-11-04T18:50:14.812Z,61.02
2023-11-04T18:52:41.844Z,61.57
2023-11-04T18:55:15.409Z,61.75
2023-11-04T18:57:44.764Z,60.90
2023-11-04T19:00:22.638Z,60.31
2023-11-04T19:03:00.226Z,61.06
2023-11-04T19:05:27.434Z,61.25
2023-11-04T19:07:58.738Z,59.55
2023-11-04T19:10:27.355Z,60.94
2023-11-04T19:12:57.739Z,60.64
2023-11-04T19:15:32.752Z,61.22
2023-11-04T19:17:59.965Z,61.28
2023-11-04T19:20:39.706Z,60.75
2023-11-04T19:23:07.288Z,61.06
2023-11-04T19:25:34.757Z,59.40
2023-11-04T19:28:07.064Z,59.96
2023-11-04T19:30:37.097Z,60.70
2023-11-04T19:33:04.263Z,60.01
2023-11-04T19:35:31.401Z,58.76
2023-11-04T19:37:58.436Z,60.71
2023-11-04T19:40:26.279Z,61.51
2023-11-04T19:42:53.376Z,60.67
2023-11-04T19:45:23.977Z,61.34
2023-11-04T19:47:54.927Z,60.94
2023-11-04T19:50:21.850Z,61.37
2023-11-04T19:52:49.079Z,61.55
2023-11-04T19:55:18.933Z,60.90
2023-11-04T19:57:45.826Z,60.07
2023-11-04T20:00:13.280Z,60.22
2023-11-04T20:02:40.152Z,61.06
2023-11-04T20:05:09.841Z,61.35
2023-11-04T20:07:37.233Z,61.73
2023-11-04T20:10:04.735Z,61.71
2023-11-04T20:12:32.201Z,62.30
2023-11-04T20:14:59.622Z,61.94
2023-11-04T20:17:30.100Z,61.35
2023-11-04T20:20:00.173Z,62.61
2023-11-04T20:22:32.241Z,62.60
2023-11-04T20:25:02.636Z,62.67
2023-11-04T20:27:35.765Z,61.84
2023-11-04T20:30:05.733Z,61.12
2023-11-04T20:32:32.506Z,62.00
2023-11-04T20:35:01.383Z,60.60
2023-11-04T20:37:28.528Z,60.02
2023-11-04T20:39:56.822Z,59.71
2023-11-04T20:42:24.350Z,60.31
2023-11-04T20:44:54.577Z,62.25
2023-11-04T20:47:21.925Z,60.74
2023-11-04T20:49:49.136Z,62.14
2023-11-04T20:52:22.159Z,63.43
2023-11-04T20:54:49.451Z,62.36
2023-11-04T20:57:16.656Z,63.55
2023-11-04T20:59:45.937Z,63.41
2023-11-04T21:02:13.098Z,62.77
2023-11-04T21:04:42.346Z,63.50
2023-11-04T21:07:11.032Z,61.94
2023-11-04T21:09:39.672Z,62.52
2023-11-04T21:12:07.577Z,62.36
2023-11-04T21:14:36.704Z,63.37
2023-11-04T21:17:10.762Z,63.68
2023-11-04T21:19:50.672Z,64.99
2023-11-04T21:22:17.778Z,63.48
2023-11-04T21:24:46.751Z,64.52
2023-11-04T21:27:21.017Z,64.40
2023-11-04T21:29:47.980Z,64.52
2023-11-04T21:32:16.342Z,64.14
2023-11-04T21:34:43.268Z,64.53
2023-11-04T21:37:11.202Z,64.68
2023-11-04T21:39:41.534Z,64.58
2023-11-04T21:42:13.498Z,64.42
2023-11-04T21:44:40.579Z,64.55
2023-11-04T21:47:07.544Z,64.37
2023-11-04T21:49:37.459Z,64.24
2023-11-04T21:52:06.300Z,63.67
2023-11-04T21:54:33.396Z,64.34
2023-11-04T21:57:00.661Z,63.87
2023-11-04T21:59:28.711Z,62.93
2023-11-04T22:01:56.236Z,63.51
2023-11-04T22:04:45.993Z,63.50
2023-11-04T22:07:13.493Z,63.59
2023-11-04T22:09:42.019Z,63.01
2023-11-04T22:12:09.191Z,62.62
2023-11-04T22:14:37.124Z,63.37
2023-11-04T22:17:04.348Z,63.08
2023-11-04T22:19:31.534Z,63.58
2023-11-04T22:21:58.790Z,64.29
2023-11-04T22:24:27.316Z,65.28
2023-11-04T22:26:54.604Z,66.15
2023-11-04T22:29:26.258Z,66.38
2023-11-04T22:31:53.033Z,66.74
2023-11-04T22:34:23.189Z,66.82
2023-11-04T22:36:50.256Z,66.52
2023-11-04T22:39:19.452Z,66.85
2023-11-04T22:41:47.106Z,66.50
2023-11-04T22:44:14.816Z,66.54
2023-11-04T22:46:42.199Z,66.86
2023-11-04T22:49:14.016Z,67.26
2023-11-04T22:51:44.429Z,67.19
2023-11-04T22:54:15.062Z,67.62
2023-11-04T22:56:42.651Z,69.11
2023-11-04T22:59:13.944Z,68.74
2023-11-04T23:01:40.865Z,68.81
2023-11-04T23:04:07.993Z,71.10
2023-11-04T23:06:35.026Z,69.71
2023-11-04T23:09:02.708Z,71.03
2023-11-04T23:11:32.105Z,70.51
2023-11-04T23:14:05.433Z,71.59
2023-11-04T23:16:35.466Z,70.56
2023-11-04T23:19:04.114Z,70.59
2023-11-04T23:21:33.732Z,69.89
2023-11-04T23:24:00.970Z,70.40
2023-11-04T23:26:28.352Z,71.69
2023-11-04T23:28:55.657Z,72.54
2023-11-04T23:31:22.606Z,73.05
2023-11-04T23:33:51.006Z,73.73
2023-11-04T23:36:18.053Z,73.29
2023-11-04T23:38:45.678Z,74.48
2023-11-04T23:41:16.698Z,75.91
2023-11-04T23:43:49.607Z,75.18
2023-11-04T23:46:19.765Z,74.21
2023-11-04T23:48:49.859Z,74.62
2023-11-04T23:51:19.890Z,74.43
2023-11-04T23:53:48.910Z,74.55
2023-11-04T23:56:17.170Z,76.20
2023-11-04T23:58:50.875Z,75.44
